Terminal Aerodrome Forecast
Issued by NWS

Home | Current Version | Previous Version | Graphics & Text | Print | Product List | Glossary On
Versions: 1 2 3 4 5 6 7 8 9 10 11 12 13 14 15 16 17
296
FTUS43 KMPX 031138
TAFAXN
TAF
KAXN 031138Z 0312/0412 20004KT P6SM OVC016
     FM031500 17008KT P6SM BKN024 OVC035
     FM031800 15012KT P6SM BKN035
     FM040100 16013KT 4SM -SN OVC020
      TEMPO 0401/0405 2SM -SN OVC008
     FM040600 17010KT P6SM OVC008=

USA.gov is the U.S. government's official web portal to all federal, state and local government web resources and services.